Greer, Ohio
Current Conditions -  °F | °C
As of 4:55 AM on Friday 28 Nov 2014 (Local Time) from K4I3 Reporting Station
Light Snow Light Snow  
Wind Chill: 16°   Ceiling: 1500
Heat Index: 25°   Visibility: 3mi
Dew Point: 21°   Wind: 8mph
Humidity: 86%   Direction: 280°W
Pressure: 30.31"   Gusts: NA
Location:  40.5315°N, 82.1576°W
Report Text: K4I3 280955Z AUTO 28007KT 3SM -SN SCT006 BKN015 OVC036 M04/M06 A3031 RMK AO2
Loading
Personal Weather Stations






























Interactive Weather Map New forecast layout! Learn more

10-Day Weather Forecast

Advertisements
Track Severe Weather on mobile